Time;durP1;ratioP1;P1;durP2;ratioP2;P2;SDS_P1;SDS_P2;PMS_P1;PMS_P2;Temp;Humidity;BMP_temperature;BMP_pressure;BME280_temperature;BME280_humidity;BME280_pressure;Samples;Min_cycle;Max_cycle;Signal;HPM_P1;HPM_P2
2024/03/27 00:01:40;;;;;;;7.75;5.80;;;;;;;6.75;100.00;92261.72;5079119;28;20454;-72
2024/03/27 00:04:06;;;;;;;7.05;5.40;;;;;;;6.72;100.00;92257.03;5085676;28;20039;-71
2024/03/27 00:06:31;;;;;;;10.45;5.95;;;;;;;6.54;100.00;92243.22;5086132;28;20040;-72
2024/03/27 00:08:57;;;;;;;8.07;5.60;;;;;;;6.70;100.00;92266.66;5085635;28;20397;-71
2024/03/27 00:11:24;;;;;;;7.93;5.22;;;;;;;6.54;100.00;92240.69;5087534;28;20039;-72
2024/03/27 00:13:50;;;;;;;6.65;5.50;;;;;;;6.58;100.00;92235.94;5084545;28;20039;-72
2024/03/27 00:16:16;;;;;;;10.32;6.30;;;;;;;6.63;100.00;92238.66;5085051;28;20051;-71
2024/03/27 00:18:41;;;;;;;9.32;5.88;;;;;;;6.88;100.00;92276.91;5084642;28;20036;-72
2024/03/27 00:21:07;;;;;;;8.10;5.95;;;;;;;6.70;100.00;92261.56;5086778;28;20028;-72
2024/03/27 00:23:33;;;;;;;6.70;5.55;;;;;;;6.77;100.00;92272.50;5085453;28;20035;-74
2024/03/27 00:25:59;;;;;;;7.40;5.32;;;;;;;6.74;100.00;92258.38;5082637;28;20024;-73
2024/03/27 00:28:25;;;;;;;6.53;5.63;;;;;;;6.88;100.00;92276.91;5088081;28;20100;-72
2024/03/27 00:30:51;;;;;;;7.22;5.70;;;;;;;6.62;100.00;92234.53;5076674;28;20670;-72
2024/03/27 00:33:17;;;;;;;10.00;5.40;;;;;;;6.66;100.00;92246.66;5078946;28;20044;-72
2024/03/27 00:35:51;;;;;;;;;;;;;;;6.91;100.00;92270.59;5086174;28;20085;-72
2024/03/27 00:38:17;;;;;;;9.77;5.72;;;;;;;6.65;100.00;92244.31;5086896;28;20011;-71
2024/03/27 00:40:42;;;;;;;10.20;5.43;;;;;;;6.67;100.00;92255.09;5087057;28;20153;-71
2024/03/27 00:43:08;;;;;;;9.33;5.77;;;;;;;6.70;100.00;92252.13;5081685;28;20509;-71
2024/03/27 00:45:33;;;;;;;8.18;4.78;;;;;;;6.98;100.00;92290.97;5086340;28;20794;-71
2024/03/27 00:47:59;;;;;;;6.43;5.40;;;;;;;6.84;100.00;92260.44;5081776;28;20089;-71
2024/03/27 00:50:24;;;;;;;8.70;5.88;;;;;;;6.88;100.00;92248.03;5084123;28;20036;-72
2024/03/27 00:52:50;;;;;;;10.10;5.20;;;;;;;6.78;100.00;92234.00;5086709;28;20082;-71
2024/03/27 00:55:15;;;;;;;7.95;5.72;;;;;;;6.88;100.00;92233.53;5083505;28;20036;-71
2024/03/27 00:57:43;;;;;;;7.45;5.35;;;;;;;6.86;100.00;92243.16;5086661;28;20606;-71
2024/03/27 01:00:10;;;;;;;10.85;5.53;;;;;;;6.65;100.00;92222.13;5082747;28;20040;-71
2024/03/27 01:02:36;;;;;;;7.00;5.22;;;;;;;6.61;100.00;92228.66;5080683;28;20090;-71
2024/03/27 01:05:02;;;;;;;8.55;6.07;;;;;;;6.80;100.00;92241.44;5081769;28;20032;-71
2024/03/27 01:07:27;;;;;;;8.38;5.40;;;;;;;6.71;100.00;92237.59;5086691;28;20064;-71
2024/03/27 01:09:53;;;;;;;8.23;5.75;;;;;;;6.84;100.00;92252.78;5082291;28;20050;-71
2024/03/27 01:12:18;;;;;;;9.80;5.30;;;;;;;6.74;100.00;92244.81;5086194;28;20067;-71
2024/03/27 01:14:44;;;;;;;9.00;6.13;;;;;;;6.86;100.00;92257.69;5086622;28;20094;-71
2024/03/27 01:17:09;;;;;;;8.35;6.25;;;;;;;6.94;100.00;92272.72;5082251;28;20048;-71
2024/03/27 01:19:34;;;;;;;7.90;5.93;;;;;;;6.73;100.00;92235.59;5084770;28;20090;-71
2024/03/27 01:22:00;;;;;;;8.45;5.25;;;;;;;6.93;100.00;92258.41;5085220;28;20031;-71
2024/03/27 01:24:25;;;;;;;9.10;5.72;;;;;;;6.64;100.00;92220.59;5084449;28;20032;-71
2024/03/27 01:26:51;;;;;;;7.18;5.68;;;;;;;6.92;100.00;92247.44;5085577;28;20458;-71
2024/03/27 01:29:16;;;;;;;6.63;5.70;;;;;;;6.71;100.00;92202.63;5082942;28;20020;-71
2024/03/27 01:31:42;;;;;;;7.45;5.63;;;;;;;6.93;100.00;92240.53;5081946;28;20046;-71
2024/03/27 01:34:07;;;;;;;9.13;6.30;;;;;;;6.82;100.00;92209.59;5084927;28;20040;-72
2024/03/27 01:36:33;;;;;;;8.50;5.60;;;;;;;6.75;100.00;92198.69;5081202;28;20050;-72
2024/03/27 01:38:58;;;;;;;7.87;5.37;;;;;;;6.69;100.00;92194.41;5086422;28;20467;-72
2024/03/27 01:41:24;;;;;;;7.85;6.07;;;;;;;6.74;100.00;92204.78;5086343;28;20593;-72
2024/03/27 01:43:49;;;;;;;9.73;5.97;;;;;;;6.69;100.00;92199.53;5085919;28;20057;-72
2024/03/27 01:46:15;;;;;;;9.00;5.75;;;;;;;6.65;100.00;92194.06;5081039;28;20366;-71
2024/03/27 01:48:41;;;;;;;9.60;6.28;;;;;;;6.77;100.00;92201.03;5082406;28;20035;-71
2024/03/27 01:51:08;;;;;;;7.85;6.10;;;;;;;6.91;100.00;92206.78;5085346;28;20460;-72
2024/03/27 01:53:33;;;;;;;7.95;6.32;;;;;;;6.78;100.00;92182.97;5081763;28;20047;-72
2024/03/27 01:55:59;;;;;;;8.38;6.03;;;;;;;7.03;100.00;92212.75;5080772;28;20044;-71
2024/03/27 01:58:25;;;;;;;8.75;6.28;;;;;;;7.14;100.00;92220.69;5080588;28;20473;-72
2024/03/27 02:00:51;;;;;;;10.77;6.75;;;;;;;6.95;100.00;92206.13;5080687;28;21014;-72
2024/03/27 02:03:17;;;;;;;;;;;;;;;7.17;100.00;92215.19;5078913;28;20055;-72
2024/03/27 02:05:44;;;;;;;9.48;6.45;;;;;;;7.03;100.00;92217.84;5084800;28;20037;-72
2024/03/27 02:08:09;;;;;;;9.25;6.30;;;;;;;7.01;100.00;92206.28;5081832;28;20123;-72
2024/03/27 02:10:35;;;;;;;11.75;6.80;;;;;;;7.15;100.00;92217.16;5085918;28;20922;-72
2024/03/27 02:13:00;;;;;;;12.70;8.52;;;;;;;7.02;100.00;92187.41;5085619;28;20032;-72
2024/03/27 02:15:26;;;;;;;9.90;6.32;;;;;;;7.19;100.00;92190.97;5086144;28;20031;-72
2024/03/27 02:17:51;;;;;;;11.57;6.65;;;;;;;7.21;100.00;92206.06;5082584;28;20111;-72
2024/03/27 02:20:17;;;;;;;8.68;5.60;;;;;;;7.09;100.00;92190.69;5085534;28;20094;-72
2024/03/27 02:22:43;;;;;;;8.48;5.60;;;;;;;7.08;100.00;92189.13;5083588;28;20115;-72
2024/03/27 02:25:39;;;;;;;6.30;5.03;;;;;;;7.02;100.00;92167.78;5087391;28;20031;-73
2024/03/27 02:28:05;;;;;;;6.75;4.82;;;;;;;7.05;100.00;92192.88;5084876;28;20706;-73
2024/03/27 02:30:31;;;;;;;7.00;5.30;;;;;;;6.99;100.00;92187.84;5087812;28;20043;-73
2024/03/27 02:32:56;;;;;;;7.63;6.00;;;;;;;6.88;100.00;92162.03;5085366;28;20044;-73
2024/03/27 02:35:21;;;;;;;9.60;5.90;;;;;;;7.01;100.00;92198.63;5090355;28;20521;-73
2024/03/27 02:37:47;;;;;;;8.00;5.55;;;;;;;6.85;100.00;92169.34;5089957;28;20652;-73
2024/03/27 02:40:12;;;;;;;10.03;6.10;;;;;;;7.04;100.00;92191.31;5089401;28;20155;-73
2024/03/27 02:42:38;;;;;;;7.90;5.47;;;;;;;6.93;100.00;92174.94;5085781;28;20276;-73
2024/03/27 02:45:04;;;;;;;8.20;5.45;;;;;;;6.81;100.00;92157.00;5090065;28;20024;-73
2024/03/27 02:47:29;;;;;;;8.43;5.57;;;;;;;6.71;100.00;92131.19;5089899;28;20111;-73
2024/03/27 02:49:55;;;;;;;6.85;5.30;;;;;;;7.07;100.00;92178.13;5086100;28;20445;-73
2024/03/27 02:52:20;;;;;;;7.15;5.03;;;;;;;7.14;100.00;92193.41;5086208;28;20024;-73
2024/03/27 02:54:46;;;;;;;7.65;5.38;;;;;;;7.14;100.00;92198.50;5087643;28;20071;-73
2024/03/27 02:57:11;;;;;;;7.45;4.80;;;;;;;6.94;100.00;92173.16;5084531;28;20036;-73
2024/03/27 02:59:37;;;;;;;7.25;5.38;;;;;;;7.14;100.00;92202.81;5087542;28;20139;-73
2024/03/27 03:02:02;;;;;;;6.32;5.57;;;;;;;7.07;100.00;92193.47;5086175;28;20392;-73
2024/03/27 03:04:27;;;;;;;8.05;5.90;;;;;;;6.95;100.00;92169.63;5087443;28;20105;-73
2024/03/27 03:06:53;;;;;;;9.55;5.85;;;;;;;7.12;100.00;92192.06;5086386;28;20544;-73
2024/03/27 03:09:19;;;;;;;8.57;6.72;;;;;;;7.14;100.00;92201.06;5089676;28;20048;-72
2024/03/27 03:11:45;;;;;;;;;;;;;;;7.18;100.00;92198.84;5089473;28;20043;-73
2024/03/27 03:14:19;;;;;;;7.35;5.50;;;;;;;6.95;100.00;92165.28;5084437;28;19920;-72
2024/03/27 03:16:44;;;;;;;9.38;6.18;;;;;;;7.12;100.00;92199.72;5088360;28;20138;-73
2024/03/27 03:19:10;;;;;;;9.75;5.82;;;;;;;7.01;100.00;92209.63;5088878;28;20110;-73
2024/03/27 03:21:35;;;;;;;8.07;6.15;;;;;;;6.96;100.00;92189.06;5089730;28;20052;-73
2024/03/27 03:24:01;;;;;;;8.10;4.90;;;;;;;6.86;100.00;92166.59;5085191;28;20612;-73
2024/03/27 03:26:26;;;;;;;6.80;5.35;;;;;;;7.07;100.00;92202.88;5088865;28;20032;-73
2024/03/27 03:28:52;;;;;;;9.50;5.63;;;;;;;6.91;100.00;92184.56;5086127;28;20122;-73
2024/03/27 03:31:17;;;;;;;10.57;5.33;;;;;;;6.98;100.00;92199.84;5083913;28;20043;-72
2024/03/27 03:33:43;;;;;;;6.40;5.20;;;;;;;7.14;100.00;92210.47;5088113;28;20261;-72
2024/03/27 03:36:09;;;;;;;10.20;5.80;;;;;;;6.97;100.00;92189.81;5088446;28;20032;-73
2024/03/27 03:38:34;;;;;;;8.98;5.28;;;;;;;7.03;100.00;92201.78;5084105;28;20039;-73
2024/03/27 03:41:02;;;;;;;7.60;5.43;;;;;;;6.99;100.00;92198.06;5086442;28;20858;-73
2024/03/27 03:43:28;;;;;;;6.63;5.57;;;;;;;6.89;100.00;92181.47;5086608;28;20123;-74
2024/03/27 03:45:57;;;;;;;6.05;4.97;;;;;;;7.06;100.00;92180.91;5087410;28;20470;-73
2024/03/27 03:48:22;;;;;;;11.80;6.68;;;;;;;6.88;100.00;92163.81;5088329;28;20119;-73
2024/03/27 03:50:48;;;;;;;7.30;5.30;;;;;;;7.17;100.00;92199.84;5084460;28;20370;-73
2024/03/27 03:53:14;;;;;;;10.98;6.05;;;;;;;7.01;100.00;92179.00;5085803;28;20146;-74
2024/03/27 03:55:42;;;;;;;7.55;5.63;;;;;;;7.06;100.00;92178.34;5085318;28;20035;-74
2024/03/27 03:58:08;;;;;;;9.27;5.18;;;;;;;7.26;100.00;92211.31;5086399;28;20442;-74
2024/03/27 04:00:34;;;;;;;8.38;5.80;;;;;;;7.11;100.00;92185.34;5083218;28;20151;-74
2024/03/27 04:02:59;;;;;;;8.60;5.47;;;;;;;7.17;100.00;92177.63;5088012;28;20115;-73
2024/03/27 04:05:25;;;;;;;8.80;5.25;;;;;;;7.14;100.00;92167.06;5087897;28;20513;-73
2024/03/27 04:07:50;;;;;;;7.30;5.35;;;;;;;7.20;100.00;92166.22;5085855;28;20480;-73
2024/03/27 04:10:16;;;;;;;6.45;5.20;;;;;;;7.41;100.00;92203.28;5083678;28;20749;-73
2024/03/27 04:12:42;;;;;;;9.32;5.82;;;;;;;7.19;100.00;92170.53;5087828;28;20104;-73
2024/03/27 04:15:08;;;;;;;7.72;5.18;;;;;;;7.43;100.00;92201.31;5088068;28;20088;-74
2024/03/27 04:17:34;;;;;;;8.43;5.72;;;;;;;7.19;100.00;92173.06;5085440;28;20555;-73
2024/03/27 04:20:37;;;;;;;8.35;5.10;;;;;;;7.21;100.00;92160.91;5083030;28;20105;-73
2024/03/27 04:23:17;;;;;;;6.53;5.53;;;;;;;7.02;100.00;92138.91;5074450;28;20448;-73
2024/03/27 04:25:52;;;;;;;7.18;5.10;;;;;;;7.59;100.00;92222.16;5086759;28;20048;-73
2024/03/27 04:28:17;;;;;;;7.90;5.70;;;;;;;7.53;100.00;92210.22;5087053;28;20027;-73
2024/03/27 04:30:43;;;;;;;9.13;5.38;;;;;;;7.63;100.00;92223.28;5083670;28;20920;-73
2024/03/27 04:33:10;;;;;;;7.32;5.45;;;;;;;7.40;100.00;92188.97;5081609;28;20036;-73
2024/03/27 04:35:37;;;;;;;10.80;5.78;;;;;;;7.18;100.00;92152.88;5087342;28;20016;-73
2024/03/27 04:38:02;;;;;;;7.20;5.88;;;;;;;7.56;100.00;92182.50;5086795;28;20024;-73
2024/03/27 04:40:28;;;;;;;9.40;7.10;;;;;;;7.46;100.00;92157.44;5083910;28;20020;-73
2024/03/27 04:42:53;;;;;;;9.00;6.70;;;;;;;7.37;100.00;92143.41;5087167;28;20040;-73
2024/03/27 04:45:19;;;;;;;9.73;6.05;;;;;;;7.67;100.00;92191.19;5087040;28;20042;-73
2024/03/27 04:47:44;;;;;;;10.32;5.70;;;;;;;7.95;100.00;92222.28;5086581;28;20055;-73
2024/03/27 04:50:10;;;;;;;9.10;5.75;;;;;;;7.65;100.00;92182.97;5084192;28;20040;-73
2024/03/27 04:52:35;;;;;;;7.15;4.68;;;;;;;7.81;100.00;92222.47;5082120;28;20124;-73
2024/03/27 04:55:03;;;;;;;9.00;5.20;;;;;;;7.83;100.00;92225.59;5085979;28;20024;-74
2024/03/27 04:57:30;;;;;;;9.20;5.13;;;;;;;7.78;100.00;92207.56;5081480;28;20035;-74
2024/03/27 04:59:55;;;;;;;6.05;4.72;;;;;;;7.83;100.00;92212.03;5087008;28;20393;-74
2024/03/27 05:02:21;;;;;;;7.18;5.22;;;;;;;7.72;100.00;92204.09;5087192;28;20048;-74
2024/03/27 05:04:46;;;;;;;5.93;4.80;;;;;;;7.77;100.00;92210.34;5084681;28;20085;-74
2024/03/27 05:07:12;;;;;;;8.75;5.75;;;;;;;7.68;100.00;92213.19;5081949;28;20036;-74
2024/03/27 05:09:38;;;;;;;8.18;5.45;;;;;;;7.52;100.00;92171.13;5086253;28;20031;-74
2024/03/27 05:12:04;;;;;;;5.55;4.60;;;;;;;7.65;100.00;92189.84;5084205;28;20476;-73
2024/03/27 05:14:30;;;;;;;9.88;5.35;;;;;;;7.82;100.00;92218.16;5083010;28;20032;-73
2024/03/27 05:16:59;;;;;;;8.07;5.15;;;;;;;7.64;100.00;92201.84;5084584;28;20115;-73
2024/03/27 05:19:25;;;;;;;7.57;5.00;;;;;;;7.83;100.00;92212.78;5080012;28;20032;-73
2024/03/27 05:21:52;;;;;;;7.38;5.35;;;;;;;7.37;100.00;92145.19;5081867;28;20492;-73
2024/03/27 05:24:18;;;;;;;10.40;5.43;;;;;;;7.84;100.00;92199.03;5086282;28;20115;-73
2024/03/27 05:26:48;;;;;;;8.90;5.30;;;;;;;7.93;100.00;92206.38;5080130;28;20173;-73
2024/03/27 05:29:24;;;;;;;7.55;4.28;;;;;;;7.54;100.00;92148.69;5079937;28;20062;-74
2024/03/27 05:32:01;;;;;;;8.05;5.05;;;;;;;7.52;100.00;92144.78;5085433;28;20558;-74
2024/03/27 05:34:27;;;;;;;9.30;5.25;;;;;;;7.89;100.00;92177.91;5085463;28;20040;-74
2024/03/27 05:36:55;;;;;;;10.65;5.88;;;;;;;8.05;100.00;92206.44;5082633;28;20408;-74
2024/03/27 05:39:22;;;;;;;8.52;4.90;;;;;;;7.64;100.00;92129.50;5068843;28;20436;-73
2024/03/27 05:41:47;;;;;;;;;;;;;;;8.27;100.00;92220.28;5073163;28;20477;-74
2024/03/27 05:44:13;;;;;;;6.93;5.53;;;;;;;7.62;100.00;92122.06;5072301;28;20057;-74
2024/03/27 05:46:45;;;;;;;9.55;5.15;;;;;;;7.46;100.00;92119.09;5072678;28;20401;-74
2024/03/27 05:49:11;;;;;;;9.27;5.22;;;;;;;7.62;100.00;92122.06;5069060;28;20387;-74
2024/03/27 05:51:39;;;;;;;10.18;6.15;;;;;;;7.54;100.00;92109.59;5071914;28;20245;-73
2024/03/27 05:54:08;;;;;;;8.48;6.07;;;;;;;7.81;100.00;92140.66;5068359;28;20047;-73
2024/03/27 05:56:34;;;;;;;10.32;6.70;;;;;;;7.93;100.00;92157.81;5071010;28;20032;-73
2024/03/27 05:58:59;;;;;;;10.85;6.43;;;;;;;8.32;100.00;92221.41;5076181;28;20044;-73
2024/03/27 06:01:25;;;;;;;10.57;7.38;;;;;;;7.78;100.00;92138.53;5067953;28;20400;-73
2024/03/27 06:03:52;;;;;;;10.30;6.60;;;;;;;8.10;100.00;92186.88;5068479;28;20472;-73
2024/03/27 06:06:18;;;;;;;11.15;6.60;;;;;;;8.02;100.00;92175.16;5068783;28;20047;-73
2024/03/27 06:08:48;;;;;;;11.30;7.00;;;;;;;8.51;100.00;92239.97;5068176;28;20027;-73
2024/03/27 06:11:13;;;;;;;10.52;7.05;;;;;;;8.29;100.00;92187.56;5068760;28;20714;-73
2024/03/27 06:13:39;;;;;;;11.48;6.15;;;;;;;8.55;100.00;92212.97;5069152;28;20036;-73
2024/03/27 06:16:08;;;;;;;10.05;6.40;;;;;;;8.42;100.00;92199.38;5069705;28;20040;-73
2024/03/27 06:18:44;;;;;;;10.95;7.30;;;;;;;8.66;100.00;92227.56;5067400;28;20040;-73
2024/03/27 06:21:11;;;;;;;12.48;7.38;;;;;;;8.58;100.00;92201.53;5068416;28;20031;-73
2024/03/27 06:23:40;;;;;;;12.35;7.10;;;;;;;8.62;100.00;92205.22;5078363;28;20016;-73
2024/03/27 06:26:09;;;;;;;12.02;7.03;;;;;;;8.53;100.00;92204.75;5071215;28;20406;-73
2024/03/27 06:28:34;;;;;;;14.63;7.82;;;;;;;8.53;100.00;92185.03;5067422;28;20028;-73
2024/03/27 06:31:12;;;;;;;11.95;7.13;;;;;;;8.82;100.00;92210.78;5067736;28;20094;-73
2024/03/27 06:33:37;;;;;;;10.10;7.03;;;;;;;8.53;100.00;92179.16;5071028;28;20106;-73
2024/03/27 06:36:03;;;;;;;12.27;6.55;;;;;;;8.94;100.00;92243.28;5067928;28;20199;-73
2024/03/27 06:38:28;;;;;;;10.80;6.13;;;;;;;8.80;100.00;92217.88;5070242;28;20844;-73
2024/03/27 06:40:57;;;;;;;8.80;5.68;;;;;;;8.35;100.00;92170.56;5066568;28;20474;-73
2024/03/27 06:43:27;;;;;;;9.60;5.80;;;;;;;9.03;100.00;92249.63;5068448;28;20012;-73
2024/03/27 06:45:53;;;;;;;9.90;6.90;;;;;;;8.87;100.00;92222.91;5073659;28;20116;-73
2024/03/27 06:48:21;;;;;;;12.93;7.03;;;;;;;8.71;100.00;92192.84;5068397;28;20108;-74
2024/03/27 06:50:56;;;;;;;9.90;6.68;;;;;;;9.04;100.00;92229.91;5073810;28;20041;-73
2024/03/27 06:53:21;;;;;;;12.07;7.30;;;;;;;8.65;100.00;92163.78;5078121;28;20055;-73
2024/03/27 06:55:52;;;;;;;10.75;7.00;;;;;;;8.71;100.00;92168.03;5070128;28;20031;-73
2024/03/27 06:58:22;;;;;;;9.90;6.03;;;;;;;8.96;100.00;92205.41;5064906;28;20075;-73
2024/03/27 07:00:48;;;;;;;9.95;5.65;;;;;;;8.65;100.00;92167.13;5067354;28;20029;-73
2024/03/27 07:03:15;;;;;;;8.27;5.28;;;;;;;9.15;100.00;92226.56;5080585;28;20032;-73
2024/03/27 07:05:44;;;;;;;8.95;5.80;;;;;;;8.76;100.00;92141.75;5067341;28;20354;-73
2024/03/27 07:08:09;;;;;;;8.27;5.32;;;;;;;9.52;100.00;92256.25;5072529;28;20020;-73
2024/03/27 07:10:35;;;;;;;7.90;5.05;;;;;;;9.64;100.00;92266.50;5073379;28;20547;-73
2024/03/27 07:13:01;;;;;;;12.63;6.95;;;;;;;9.40;100.00;92219.63;5083871;28;20020;-74
2024/03/27 07:15:26;;;;;;;14.52;6.88;;;;;;;9.39;100.00;92229.06;5076484;28;20461;-73
2024/03/27 07:17:52;;;;;;;14.05;8.00;;;;;;;9.60;100.00;92225.16;5071982;28;20033;-73
2024/03/27 07:20:17;;;;;;;12.93;7.93;;;;;;;9.99;100.00;92259.66;5071366;28;20039;-74
2024/03/27 07:22:43;;;;;;;13.82;7.93;;;;;;;9.91;100.00;92227.50;5075888;28;20032;-74
2024/03/27 07:25:09;;;;;;;12.77;7.13;;;;;;;10.15;100.00;92229.94;5070925;28;20043;-73
2024/03/27 07:27:36;;;;;;;;;;;;;;;10.72;100.00;92264.25;5075818;28;20115;-74
2024/03/27 07:30:01;;;;;;;11.02;8.10;;;;;;;10.92;100.00;92253.50;5072415;28;19920;-74
2024/03/27 07:32:27;;;;;;;10.43;6.30;;;;;;;11.15;100.00;92263.84;5071882;28;20501;-73
2024/03/27 07:34:52;;;;;;;16.67;7.57;;;;;;;11.41;100.00;92251.31;5079119;28;20603;-73
2024/03/27 07:37:18;;;;;;;11.55;6.93;;;;;;;11.62;100.00;92249.78;5076134;28;20036;-73
2024/03/27 07:39:43;;;;;;;12.85;6.57;;;;;;;11.57;100.00;92217.03;5070518;28;20480;-74
2024/03/27 07:42:09;;;;;;;8.65;6.22;;;;;;;12.02;100.00;92246.09;5072616;28;20453;-74
2024/03/27 07:44:34;;;;;;;9.30;5.47;;;;;;;12.22;100.00;92242.19;5073634;28;20044;-74
2024/03/27 07:47:00;;;;;;;10.40;6.00;;;;;;;12.41;100.00;92234.13;5079152;28;20021;-74
2024/03/27 07:49:25;;;;;;;11.00;5.30;;;;;;;12.11;100.00;92189.81;5070665;28;20062;-74
2024/03/27 07:51:51;;;;;;;11.80;5.45;;;;;;;12.37;100.00;92215.03;5079496;28;20081;-74
2024/03/27 07:54:16;;;;;;;10.93;5.93;;;;;;;12.76;100.00;92238.00;5072922;28;20066;-74
2024/03/27 07:56:44;;;;;;;10.20;5.10;;;;;;;12.98;100.00;92255.16;5071798;28;20691;-74
2024/03/27 07:59:13;;;;;;;11.40;5.28;;;;;;;13.17;100.00;92249.59;5069796;28;20082;-73
2024/03/27 08:01:39;;;;;;;13.45;5.13;;;;;;;13.26;100.00;92249.88;5072119;28;20044;-73
2024/03/27 08:04:05;;;;;;;12.90;5.20;;;;;;;13.32;100.00;92231.63;5075874;28;20117;-74
2024/03/27 08:06:30;;;;;;;11.90;5.68;;;;;;;13.54;100.00;92258.31;5070824;28;20154;-74
2024/03/27 08:08:56;;;;;;;14.02;5.88;;;;;;;13.40;100.00;92222.63;5069749;28;20045;-74
2024/03/27 08:11:22;;;;;;;9.48;4.53;;;;;;;13.35;100.00;92186.50;5069476;28;20076;-74
2024/03/27 08:13:47;;;;;;;;;;;;;;;13.77;100.00;92251.97;5069183;28;20028;-73
2024/03/27 08:16:13;;;;;;;12.75;4.75;;;;;;;13.64;100.00;92248.03;5069544;28;19960;-74
2024/03/27 08:18:46;;;;;;;12.30;5.10;;;;;;;13.86;100.00;92260.78;5073663;28;20052;-73
2024/03/27 08:21:12;;;;;;;13.93;5.95;;;;;;;13.94;100.00;92240.66;5069104;28;20520;-73
2024/03/27 08:23:37;;;;;;;12.50;5.40;;;;;;;13.79;100.00;92223.31;5072564;28;20107;-73
2024/03/27 08:26:03;;;;;;;12.15;4.57;;;;;;;14.00;100.00;92247.38;5076116;28;20118;-74
2024/03/27 08:28:29;;;;;;;14.75;5.05;;;;;;;13.79;100.00;92215.59;5068669;28;20421;-73
2024/03/27 08:30:55;;;;;;;11.75;5.18;;;;;;;14.06;100.00;92243.78;5069051;28;20124;-74
2024/03/27 08:33:21;;;;;;;10.02;4.32;;;;;;;14.16;100.00;92245.59;5074721;28;20035;-74
2024/03/27 08:35:47;;;;;;;;;;;;;;;14.26;100.00;92253.38;5070928;28;20036;-74
2024/03/27 08:38:12;;;;;;;14.50;5.78;;;;;;;14.09;100.00;92216.69;5072869;28;20014;-74
2024/03/27 08:40:38;;;;;;;10.88;4.47;;;;;;;14.18;100.00;92217.72;5071051;28;20036;-74
2024/03/27 08:43:03;;;;;;;10.68;3.92;;;;;;;14.31;100.00;92252.63;5069576;28;20442;-74
2024/03/27 08:45:29;;;;;;;12.13;5.32;;;;;;;14.31;100.00;92250.03;5068272;28;20056;-74
2024/03/27 08:47:54;;;;;;;13.60;5.40;;;;;;;14.23;100.00;92235.03;5070827;28;20033;-74
2024/03/27 08:50:20;;;;;;;14.10;5.25;;;;;;;14.19;100.00;92200.41;5071055;28;20508;-74
2024/03/27 08:52:47;;;;;;;14.60;5.07;;;;;;;14.63;100.00;92246.44;5071719;28;20039;-74
2024/03/27 08:55:13;;;;;;;15.13;5.00;;;;;;;14.74;100.00;92249.81;5077920;28;20039;-74
2024/03/27 08:57:39;;;;;;;15.32;5.50;;;;;;;14.70;100.00;92238.44;5069840;28;20043;-74
2024/03/27 09:00:05;;;;;;;17.88;5.85;;;;;;;14.83;100.00;92206.91;5075873;28;20044;-75
2024/03/27 09:02:30;;;;;;;16.30;6.25;;;;;;;15.02;100.00;92197.84;5073572;28;20051;-75
2024/03/27 09:04:56;;;;;;;12.95;6.00;;;;;;;15.48;100.00;92235.75;5078724;28;20024;-75
2024/03/27 09:07:22;;;;;;;14.77;5.72;;;;;;;15.37;100.00;92180.69;5075867;28;20123;-75
2024/03/27 09:09:47;;;;;;;;;;;;;;;15.93;98.52;92237.69;5076405;28;20032;-74
2024/03/27 09:12:13;;;;;;;14.85;5.68;;;;;;;15.74;99.52;92209.78;5069442;28;19947;-74
2024/03/27 09:14:39;;;;;;;12.82;5.18;;;;;;;15.60;96.62;92212.94;5073827;28;20110;-74
2024/03/27 09:17:04;;;;;;;20.25;5.45;;;;;;;15.76;98.03;92226.59;5070680;28;20046;-75
2024/03/27 09:19:29;;;;;;;15.30;4.97;;;;;;;15.67;96.45;92210.06;5080625;28;20044;-74
2024/03/27 09:21:55;;;;;;;13.25;4.82;;;;;;;16.06;98.09;92234.50;5068398;28;20043;-75
2024/03/27 09:24:21;;;;;;;14.75;4.15;;;;;;;16.21;96.24;92254.38;5068920;28;21015;-74
2024/03/27 09:26:49;;;;;;;18.23;5.22;;;;;;;16.25;94.53;92239.06;5071578;28;20119;-74
2024/03/27 09:29:16;;;;;;;17.88;4.28;;;;;;;16.55;95.67;92251.06;5071580;28;20045;-75
2024/03/27 09:31:41;;;;;;;17.27;5.88;;;;;;;16.46;93.32;92208.59;5068870;28;20058;-74
2024/03/27 09:34:07;;;;;;;31.58;8.50;;;;;;;16.09;90.83;92148.47;5073363;28;20028;-74
2024/03/27 09:36:32;;;;;;;28.25;6.18;;;;;;;16.73;89.04;92225.50;5075052;28;20028;-75
2024/03/27 09:39:01;;;;;;;26.40;6.50;;;;;;;16.83;90.14;92217.66;5070034;28;20111;-74
2024/03/27 09:41:28;;;;;;;20.42;5.43;;;;;;;17.04;89.02;92253.03;5074725;28;20033;-74
2024/03/27 09:43:55;;;;;;;17.85;5.68;;;;;;;17.14;89.71;92234.78;5068056;28;20034;-75
2024/03/27 09:46:21;;;;;;;18.20;5.30;;;;;;;17.01;88.41;92209.44;5068704;28;20094;-74
2024/03/27 09:48:47;;;;;;;20.63;5.70;;;;;;;16.89;87.61;92235.75;5067049;28;20045;-74
2024/03/27 09:51:16;;;;;;;16.30;4.82;;;;;;;16.86;87.56;92231.09;5071499;28;20040;-74
2024/03/27 09:53:43;;;;;;;17.35;6.43;;;;;;;16.80;88.97;92236.34;5068108;28;20064;-74
2024/03/27 09:56:10;;;;;;;30.65;7.35;;;;;;;16.89;88.21;92218.38;5070723;28;20082;-74
2024/03/27 09:58:36;;;;;;;26.90;6.70;;;;;;;16.83;87.05;92222.06;5067898;28;20040;-74
2024/03/27 10:01:06;;;;;;;25.40;5.75;;;;;;;17.21;87.38;92235.22;5070929;28;20040;-74
2024/03/27 10:03:35;;;;;;;28.35;6.00;;;;;;;17.14;86.98;92210.66;5070779;28;20135;-73
2024/03/27 10:06:01;;;;;;;28.02;7.72;;;;;;;17.16;84.32;92211.91;5074639;28;20497;-73
2024/03/27 10:08:27;;;;;;;;;;;;;;;17.42;83.78;92244.63;5077155;28;20024;-75
2024/03/27 10:10:56;;;;;;;26.80;7.03;;;;;;;17.11;85.05;92208.63;5073482;28;20304;-74
2024/03/27 10:13:23;;;;;;;27.27;6.47;;;;;;;17.25;85.04;92211.34;5069355;28;20036;-73
2024/03/27 10:15:52;;;;;;;31.08;7.53;;;;;;;17.21;84.70;92216.28;5068102;28;20047;-73
2024/03/27 10:18:19;;;;;;;28.08;8.40;;;;;;;17.48;83.70;92236.53;5067982;28;20127;-73
2024/03/27 10:20:44;;;;;;;22.65;5.88;;;;;;;17.43;83.39;92200.22;5069334;28;20028;-74
2024/03/27 10:23:11;;;;;;;22.73;5.88;;;;;;;17.53;85.01;92203.78;5076084;28;20073;-74
2024/03/27 10:25:40;;;;;;;23.65;6.15;;;;;;;17.70;83.15;92203.28;5073220;28;20038;-74
2024/03/27 10:28:10;;;;;;;24.63;4.72;;;;;;;17.88;83.04;92232.94;5075478;28;20074;-74
2024/03/27 10:30:36;;;;;;;29.38;7.15;;;;;;;17.65;82.67;92234.50;5071893;28;20044;-74
2024/03/27 10:33:04;;;;;;;;;;;;;;;17.65;81.97;92240.50;5074610;28;20036;-73
2024/03/27 10:35:32;;;;;;;17.98;5.65;;;;;;;17.74;83.00;92227.66;5077258;28;20635;-74
2024/03/27 10:37:58;;;;;;;30.50;6.15;;;;;;;17.72;84.88;92207.16;5069465;28;20028;-74
2024/03/27 10:40:24;;;;;;;29.67;6.50;;;;;;;17.85;82.10;92225.69;5069202;28;20032;-74
2024/03/27 10:42:57;;;;;;;29.85;7.20;;;;;;;17.73;81.83;92213.91;5068367;28;20025;-74
2024/03/27 10:45:24;;;;;;;24.65;6.20;;;;;;;17.80;82.20;92231.75;5073129;28;20087;-75
2024/03/27 10:47:50;;;;;;;27.60;7.50;;;;;;;17.72;82.82;92198.59;5076313;28;20995;-74
2024/03/27 10:50:19;;;;;;;31.73;6.65;;;;;;;17.79;82.46;92238.00;5073757;28;20043;-74
2024/03/27 10:55:32;;;;;;;27.83;6.65;;;;;;;17.71;83.71;92243.78;5071885;28;20042;-74
2024/03/27 10:58:00;;;;;;;23.42;4.97;;;;;;;17.66;85.00;92230.88;5076863;28;20111;-74
2024/03/27 11:00:26;;;;;;;19.30;4.28;;;;;;;17.48;84.52;92227.94;5077524;28;20052;-73
2024/03/27 11:02:52;;;;;;;26.83;5.35;;;;;;;17.51;85.54;92227.41;5073486;28;20032;-74
2024/03/27 11:05:19;;;;;;;24.02;5.13;;;;;;;17.59;85.14;92219.00;5074964;28;20792;-74
2024/03/27 11:07:48;;;;;;;25.08;4.93;;;;;;;17.68;85.53;92206.16;5072569;28;20151;-74
2024/03/27 11:10:23;;;;;;;24.90;5.55;;;;;;;17.92;84.92;92194.97;5072162;28;20032;-74
2024/03/27 11:12:50;;;;;;;33.00;6.88;;;;;;;17.76;81.18;92204.78;5071955;28;20036;-74
2024/03/27 11:15:16;;;;;;;35.45;7.57;;;;;;;17.86;81.64;92216.84;5074917;28;20115;-74
2024/03/27 11:17:55;;;;;;;37.55;8.75;;;;;;;17.99;81.16;92215.41;5073368;28;20500;-74
2024/03/27 11:20:25;;;;;;;31.95;7.25;;;;;;;18.14;82.42;92215.22;5072169;28;20059;-75
2024/03/27 11:22:54;;;;;;;46.15;9.40;;;;;;;18.20;78.96;92221.13;5074081;28;20580;-74
2024/03/27 11:25:24;;;;;;;43.28;10.50;;;;;;;18.07;77.85;92211.44;5073395;28;20584;-74
2024/03/27 11:27:50;;;;;;;45.92;8.82;;;;;;;18.08;77.88;92205.97;5078809;28;20028;-74
2024/03/27 11:30:20;;;;;;;46.20;9.13;;;;;;;17.95;78.00;92201.44;5072091;28;20036;-73
2024/03/27 11:32:47;;;;;;;48.10;9.63;;;;;;;18.25;79.01;92213.28;5074842;28;20078;-74